createdAt,value
2022-09-06T00:00:57.935Z,1.67
2022-09-06T00:05:50.711Z,1.80
2022-09-06T00:08:17.255Z,1.75
2022-09-06T00:10:43.773Z,1.80
2022-09-06T00:13:11.543Z,1.65
2022-09-06T00:15:38.201Z,1.83
2022-09-06T00:18:06.751Z,1.77
2022-09-06T00:20:34.671Z,1.58
2022-09-06T00:23:03.553Z,1.88
2022-09-06T00:25:30.849Z,1.70
2022-09-06T00:27:58.718Z,1.70
2022-09-06T00:30:26.360Z,1.60
2022-09-06T00:32:53.910Z,1.50
2022-09-06T00:35:21.997Z,1.40
2022-09-06T00:37:48.525Z,1.67
2022-09-06T00:40:16.476Z,1.60
2022-09-06T00:42:43.019Z,1.70
2022-09-06T00:45:11.004Z,1.60
2022-09-06T00:47:39.690Z,1.50
2022-09-06T00:50:08.118Z,1.70
2022-09-06T00:52:34.940Z,1.98
2022-09-06T00:55:01.619Z,1.60
2022-09-06T00:57:30.928Z,1.58
2022-09-06T00:59:57.936Z,1.60
2022-09-06T01:02:24.654Z,1.60
2022-09-06T01:04:52.160Z,1.67
2022-09-06T01:07:44.989Z,1.50
2022-09-06T01:10:48.376Z,1.50
2022-09-06T01:13:37.644Z,1.80
2022-09-06T01:16:12.080Z,1.67
2022-09-06T01:18:47.821Z,1.42
2022-09-06T01:21:36.386Z,1.65
2022-09-06T01:24:36.563Z,1.65
2022-09-06T01:27:24.289Z,1.55
2022-09-06T01:30:04.102Z,1.77
2022-09-06T01:32:49.042Z,1.73
2022-09-06T01:35:37.922Z,2.00
2022-09-06T01:38:05.047Z,2.03
2022-09-06T01:40:35.702Z,1.70
2022-09-06T01:43:06.904Z,1.63
2022-09-06T01:45:38.796Z,1.90
2022-09-06T01:48:10.189Z,1.88
2022-09-06T01:51:10.687Z,1.50
2022-09-06T01:54:19.559Z,1.52
2022-09-06T01:56:55.188Z,1.88
2022-09-06T01:59:49.055Z,1.60
2022-09-06T02:02:25.843Z,1.80
2022-09-06T02:05:27.713Z,1.70
2022-09-06T02:10:44.781Z,1.52
2022-09-06T02:13:13.795Z,1.55
2022-09-06T02:15:47.751Z,1.52
2022-09-06T02:18:21.684Z,1.55
2022-09-06T02:20:51.768Z,1.50
2022-09-06T02:23:21.244Z,1.55
2022-09-06T02:25:51.936Z,1.67
2022-09-06T02:28:19.049Z,1.60
2022-09-06T02:30:49.697Z,1.30
2022-09-06T02:33:21.635Z,1.58
2022-09-06T02:35:50.693Z,1.60
2022-09-06T02:38:18.002Z,1.70
2022-09-06T02:40:45.790Z,1.55
2022-09-06T02:43:12.297Z,1.70
2022-09-06T02:45:38.867Z,1.50
2022-09-06T02:48:05.454Z,1.60
2022-09-06T02:50:32.048Z,1.92
2022-09-06T02:53:10.048Z,2.00
2022-09-06T02:55:37.266Z,1.40
2022-09-06T02:58:04.680Z,1.63
2022-09-06T03:00:31.632Z,1.63
2022-09-06T03:02:58.305Z,1.55
2022-09-06T03:05:26.557Z,1.60
2022-09-06T03:07:54.473Z,1.70
2022-09-06T03:10:22.177Z,1.70
2022-09-06T03:12:48.950Z,1.75
2022-09-06T03:15:16.389Z,1.63
2022-09-06T03:17:43.305Z,1.60
2022-09-06T03:20:11.002Z,1.67
2022-09-06T03:22:40.861Z,1.70
2022-09-06T03:25:09.193Z,1.48
2022-09-06T03:27:35.989Z,1.73
2022-09-06T03:30:02.939Z,1.63
2022-09-06T03:32:29.493Z,1.80
2022-09-06T03:34:56.040Z,1.70
2022-09-06T03:37:22.609Z,1.60
2022-09-06T03:39:49.174Z,1.50
2022-09-06T03:42:15.739Z,1.55
2022-09-06T03:44:42.262Z,1.58
2022-09-06T03:47:08.765Z,1.35
2022-09-06T03:49:35.259Z,1.58
2022-09-06T03:52:02.204Z,1.80
2022-09-06T03:54:29.130Z,1.60
2022-09-06T03:56:55.892Z,1.50
2022-09-06T03:59:22.540Z,1.30
2022-09-06T04:01:49.057Z,1.55
2022-09-06T04:04:15.641Z,1.40
2022-09-06T04:06:42.185Z,1.67
2022-09-06T04:09:08.723Z,1.40
2022-09-06T04:11:35.285Z,1.67
2022-09-06T04:14:01.791Z,1.80
2022-09-06T04:16:28.346Z,1.58
2022-09-06T04:18:54.860Z,1.52
2022-09-06T04:21:21.451Z,1.50
2022-09-06T04:23:48.092Z,1.75
2022-09-06T04:26:15.038Z,1.60
2022-09-06T04:28:41.807Z,1.35
2022-09-06T04:31:08.357Z,1.55
2022-09-06T04:33:37.136Z,1.98
2022-09-06T04:36:06.750Z,1.60
2022-09-06T04:38:42.190Z,1.63
2022-09-06T04:41:13.375Z,1.42
2022-09-06T04:43:39.995Z,1.58
2022-09-06T04:46:06.946Z,1.55
2022-09-06T04:48:33.820Z,1.90
2022-09-06T04:51:00.357Z,1.85
2022-09-06T04:53:27.062Z,1.83
2022-09-06T04:55:53.733Z,1.98
2022-09-06T04:58:20.273Z,1.90
2022-09-06T05:00:47.869Z,1.77
2022-09-06T05:03:14.613Z,1.98
2022-09-06T05:05:41.211Z,1.70
2022-09-06T05:08:07.733Z,1.73
2022-09-06T05:10:34.349Z,1.83
2022-09-06T05:13:01.017Z,1.80
2022-09-06T05:15:27.530Z,1.83
2022-09-06T05:17:54.047Z,1.60
2022-09-06T05:20:20.590Z,1.80
2022-09-06T05:22:54.513Z,1.52
2022-09-06T05:25:21.181Z,1.70
2022-09-06T05:27:47.819Z,1.48
2022-09-06T05:30:15.036Z,1.77
2022-09-06T05:32:41.589Z,1.60
2022-09-06T05:35:08.555Z,1.65
2022-09-06T05:37:35.076Z,1.63
2022-09-06T05:40:02.049Z,1.83
2022-09-06T05:42:28.600Z,1.85
2022-09-06T05:44:55.313Z,1.65
2022-09-06T05:47:21.863Z,1.50
2022-09-06T05:49:48.424Z,1.55
2022-09-06T05:52:14.964Z,1.70
2022-09-06T05:54:41.568Z,1.40
2022-09-06T05:57:08.153Z,1.70
2022-09-06T05:59:34.928Z,2.00
2022-09-06T06:02:04.360Z,1.80
2022-09-06T06:04:33.737Z,1.80
2022-09-06T06:07:00.265Z,1.73
2022-09-06T06:09:26.894Z,2.17
2022-09-06T06:11:53.400Z,1.80
2022-09-06T06:14:20.050Z,1.83
2022-09-06T06:16:46.683Z,2.00
2022-09-06T06:19:13.511Z,1.98
2022-09-06T06:21:40.136Z,1.90
2022-09-06T06:24:07.013Z,1.42
2022-09-06T06:26:35.511Z,2.10
2022-09-06T06:29:02.512Z,2.17
2022-09-06T06:31:30.551Z,1.92
2022-09-06T06:33:57.239Z,1.60
2022-09-06T06:36:30.739Z,1.58
2022-09-06T06:38:58.125Z,1.60
2022-09-06T06:41:29.455Z,1.60
2022-09-06T06:43:59.743Z,1.67
2022-09-06T06:46:28.423Z,1.65
2022-09-06T06:48:55.813Z,1.70
2022-09-06T06:51:25.057Z,1.75
2022-09-06T06:53:51.722Z,1.50
2022-09-06T06:56:21.020Z,1.50
2022-09-06T06:58:49.781Z,1.30
2022-09-06T07:01:17.541Z,1.45
2022-09-06T07:03:44.429Z,1.40
2022-09-06T07:06:11.452Z,1.45
2022-09-06T07:08:38.844Z,1.40
2022-09-06T07:11:07.111Z,1.45
2022-09-06T07:13:34.372Z,1.60
2022-09-06T07:16:24.196Z,1.27
2022-09-06T07:18:52.540Z,1.67
2022-09-06T07:21:37.174Z,1.40
2022-09-06T07:24:08.426Z,1.40
2022-09-06T07:26:36.614Z,1.40
2022-09-06T07:29:04.678Z,1.52
2022-09-06T07:34:20.414Z,1.48
2022-09-06T07:36:47.187Z,1.40
2022-09-06T07:39:14.120Z,1.45
2022-09-06T07:41:40.624Z,1.50
2022-09-06T07:44:07.198Z,1.50
2022-09-06T07:46:34.074Z,1.40
2022-09-06T07:49:00.625Z,1.52
2022-09-06T07:51:27.174Z,1.50
2022-09-06T07:54:13.257Z,1.48
2022-09-06T07:56:44.357Z,1.55
2022-09-06T07:59:10.960Z,1.60
2022-09-06T08:01:38.919Z,1.40
2022-09-06T08:04:10.713Z,1.80
2022-09-06T08:09:29.836Z,2.13
2022-09-06T08:11:56.438Z,1.70
2022-09-06T08:14:23.080Z,1.85
2022-09-06T08:16:50.288Z,2.05
2022-09-06T08:19:18.324Z,2.10
2022-09-06T08:21:45.047Z,2.30
2022-09-06T08:24:11.892Z,2.17
2022-09-06T08:26:40.505Z,2.47
2022-09-06T08:29:08.924Z,2.00
2022-09-06T08:31:38.199Z,2.10
2022-09-06T08:34:05.406Z,1.92
2022-09-06T08:36:32.476Z,2.00
2022-09-06T08:39:00.441Z,2.10
2022-09-06T08:41:49.359Z,1.85
2022-09-06T08:47:09.106Z,2.30
2022-09-06T08:49:38.934Z,3.13
2022-09-06T08:52:08.709Z,2.50
2022-09-06T08:55:06.100Z,2.40
2022-09-06T08:57:55.279Z,2.78
2022-09-06T09:00:23.120Z,2.90
2022-09-06T09:02:55.236Z,2.60
2022-09-06T09:05:23.609Z,2.60
2022-09-06T09:08:08.258Z,2.95
2022-09-06T09:10:41.735Z,2.67
2022-09-06T09:13:09.501Z,2.40
2022-09-06T09:15:40.413Z,2.80
2022-09-06T09:18:07.513Z,2.65
2022-09-06T09:20:34.151Z,2.40
2022-09-06T09:23:01.896Z,2.30
2022-09-06T09:25:31.374Z,2.30
2022-09-06T09:27:58.275Z,1.85
2022-09-06T09:33:41.286Z,2.17
2022-09-06T09:36:11.358Z,2.35
2022-09-06T09:38:46.479Z,2.10
2022-09-06T09:41:41.126Z,2.35
2022-09-06T09:44:11.586Z,2.50
2022-09-06T09:46:41.845Z,2.20
2022-09-06T09:49:08.518Z,2.13
2022-09-06T09:51:46.781Z,2.20
2022-09-06T09:54:15.545Z,2.30
2022-09-06T09:56:53.018Z,2.35
2022-09-06T09:59:23.091Z,2.30
2022-09-06T10:01:50.406Z,2.05
2022-09-06T10:04:49.654Z,2.72
2022-09-06T10:07:18.765Z,2.10
2022-09-06T10:09:59.633Z,2.15
2022-09-06T10:12:31.867Z,1.98
2022-09-06T10:15:02.285Z,2.13
2022-09-06T10:17:32.829Z,2.75
2022-09-06T10:20:08.632Z,2.75
2022-09-06T10:22:51.933Z,2.03
2022-09-06T10:25:27.180Z,2.00
2022-09-06T10:28:10.868Z,2.25
2022-09-06T10:31:29.841Z,2.38
2022-09-06T10:33:56.355Z,2.22
2022-09-06T10:36:32.097Z,2.30
2022-09-06T10:39:03.962Z,2.58
2022-09-06T10:41:42.985Z,2.60
2022-09-06T10:44:23.940Z,2.28
2022-09-06T10:46:59.336Z,2.10
2022-09-06T10:49:28.542Z,2.03
2022-09-06T10:51:58.405Z,2.00
2022-09-06T10:54:25.154Z,2.63
2022-09-06T10:56:58.773Z,2.20
2022-09-06T10:59:38.787Z,2.35
2022-09-06T11:02:24.639Z,2.10
2022-09-06T11:10:38.158Z,2.00
2022-09-06T11:13:19.563Z,1.90
2022-09-06T11:15:50.934Z,1.95
2022-09-06T11:18:40.895Z,2.00
2022-09-06T11:21:07.720Z,2.10
2022-09-06T11:23:43.061Z,1.90
2022-09-06T11:26:21.866Z,2.00
2022-09-06T11:28:59.939Z,2.10
2022-09-06T11:34:30.982Z,2.15
2022-09-06T11:37:07.124Z,2.33
2022-09-06T11:42:46.249Z,2.33
2022-09-06T11:45:21.417Z,2.35
2022-09-06T11:47:50.341Z,2.22
2022-09-06T11:50:28.816Z,2.25
2022-09-06T11:52:55.621Z,2.40
2022-09-06T11:55:25.066Z,2.80
2022-09-06T11:57:57.088Z,2.50
2022-09-06T12:00:24.450Z,2.40
2022-09-06T12:02:52.053Z,2.30
2022-09-06T12:05:26.084Z,2.47
2022-09-06T12:08:11.046Z,2.70
2022-09-06T12:10:40.515Z,2.30
2022-09-06T12:13:32.801Z,2.50
2022-09-06T12:15:59.927Z,2.50
2022-09-06T12:18:48.086Z,2.10
2022-09-06T12:21:34.513Z,2.40
2022-09-06T12:24:01.970Z,2.42
2022-09-06T12:27:13.083Z,2.38
2022-09-06T12:29:40.465Z,2.28
2022-09-06T12:32:07.124Z,2.20
2022-09-06T12:34:34.841Z,2.50
2022-09-06T12:37:05.025Z,2.03
2022-09-06T12:39:32.184Z,2.50
2022-09-06T12:42:12.108Z,2.50
2022-09-06T12:44:45.549Z,2.70
2022-09-06T12:47:16.602Z,2.50
2022-09-06T12:49:43.180Z,2.70
2022-09-06T12:52:15.354Z,2.47
2022-09-06T12:54:49.954Z,2.65
2022-09-06T12:57:24.490Z,2.50
2022-09-06T12:59:56.613Z,2.45
2022-09-06T13:02:33.859Z,2.67
2022-09-06T13:05:05.770Z,2.92
2022-09-06T13:07:35.322Z,2.70
2022-09-06T13:10:02.422Z,2.55
2022-09-06T13:12:38.367Z,2.60
2022-09-06T13:15:08.228Z,2.47
2022-09-06T13:17:35.620Z,2.10
2022-09-06T13:20:14.565Z,2.03
2022-09-06T13:22:46.235Z,1.92
2022-09-06T13:25:20.646Z,2.47
2022-09-06T13:27:51.989Z,2.15
2022-09-06T13:30:32.468Z,2.35
2022-09-06T13:32:59.177Z,2.20
2022-09-06T13:35:31.103Z,2.30
2022-09-06T13:38:30.747Z,2.20
2022-09-06T13:41:16.269Z,2.20
2022-09-06T13:43:45.245Z,2.00
2022-09-06T13:46:11.915Z,2.28
2022-09-06T13:48:44.217Z,2.10
2022-09-06T13:51:11.343Z,2.40
2022-09-06T13:53:37.959Z,2.08
2022-09-06T13:56:08.726Z,2.70
2022-09-06T13:58:36.157Z,2.35
2022-09-06T14:01:03.107Z,2.45
2022-09-06T14:03:31.890Z,2.33
2022-09-06T14:06:00.277Z,2.30
2022-09-06T14:08:38.837Z,2.17
2022-09-06T14:11:15.039Z,2.40
2022-09-06T14:13:42.086Z,2.40
2022-09-06T14:16:08.758Z,2.30
2022-09-06T14:18:35.947Z,2.30
2022-09-06T14:21:02.827Z,2.42
2022-09-06T14:23:29.359Z,2.20
2022-09-06T14:25:56.751Z,2.38
2022-09-06T14:28:24.949Z,2.75
2022-09-06T14:30:52.092Z,2.50
2022-09-06T14:33:21.034Z,2.30
2022-09-06T14:35:48.833Z,2.30
2022-09-06T14:38:15.813Z,2.50
2022-09-06T14:40:45.224Z,2.72
2022-09-06T14:43:11.899Z,2.40
2022-09-06T14:45:38.723Z,2.72
2022-09-06T14:48:05.715Z,2.78
2022-09-06T14:50:32.398Z,3.13
2022-09-06T14:52:59.159Z,2.40
2022-09-06T14:55:25.831Z,2.45
2022-09-06T14:57:52.430Z,2.65
2022-09-06T15:00:19.381Z,2.90
2022-09-06T15:02:46.021Z,2.80
2022-09-06T15:05:12.605Z,2.63
2022-09-06T15:07:39.161Z,2.55
2022-09-06T15:10:05.919Z,2.90
2022-09-06T15:12:32.531Z,2.63
2022-09-06T15:14:59.200Z,3.10
2022-09-06T15:17:25.722Z,2.65
2022-09-06T15:19:52.326Z,3.00
2022-09-06T15:22:18.892Z,2.90
2022-09-06T15:24:45.763Z,2.88
2022-09-06T15:27:13.505Z,2.95
2022-09-06T15:29:40.070Z,2.83
2022-09-06T15:32:07.285Z,2.70
2022-09-06T15:34:34.075Z,2.78
2022-09-06T15:37:00.635Z,2.50
2022-09-06T15:39:27.213Z,3.03
2022-09-06T15:41:53.844Z,2.38
2022-09-06T15:44:23.997Z,2.38
2022-09-06T15:46:56.821Z,2.38
2022-09-06T15:49:28.038Z,2.53
2022-09-06T15:51:57.183Z,2.33
2022-09-06T15:54:43.731Z,2.38
2022-09-06T15:57:10.521Z,2.67
2022-09-06T15:59:37.236Z,2.60
2022-09-06T16:02:03.891Z,2.30
2022-09-06T16:04:30.519Z,2.75
2022-09-06T16:06:57.084Z,2.88
2022-09-06T16:09:23.860Z,2.70
2022-09-06T16:11:50.689Z,2.53
2022-09-06T16:14:18.010Z,2.80
2022-09-06T16:16:44.744Z,2.40
2022-09-06T16:19:12.366Z,2.97
2022-09-06T16:21:40.410Z,2.10
2022-09-06T16:24:08.935Z,2.50
2022-09-06T16:26:43.674Z,2.40
2022-09-06T16:29:11.685Z,2.65
2022-09-06T16:31:40.497Z,2.40
2022-09-06T16:34:08.681Z,2.40
2022-09-06T16:36:35.282Z,2.38
2022-09-06T16:39:01.853Z,2.33
2022-09-06T16:41:32.376Z,2.75
2022-09-06T16:43:58.925Z,2.10
2022-09-06T16:46:28.830Z,2.20
2022-09-06T16:49:03.339Z,2.53
2022-09-06T16:51:31.153Z,2.60
2022-09-06T16:53:58.168Z,2.60
2022-09-06T16:56:27.736Z,2.47
2022-09-06T16:58:56.587Z,2.58
2022-09-06T17:01:24.323Z,2.30
2022-09-06T17:03:51.278Z,2.63
2022-09-06T17:06:18.924Z,2.47
2022-09-06T17:08:46.208Z,2.38
2022-09-06T17:11:15.518Z,2.58
2022-09-06T17:13:43.167Z,2.40
2022-09-06T17:16:28.447Z,2.22
2022-09-06T17:18:55.176Z,2.00
2022-09-06T17:21:23.559Z,1.92
2022-09-06T17:23:50.738Z,2.08
2022-09-06T17:26:20.617Z,2.05
2022-09-06T17:28:48.952Z,2.00
2022-09-06T17:31:16.154Z,1.90
2022-09-06T17:33:42.725Z,1.83
2022-09-06T17:36:42.757Z,2.20
2022-09-06T17:39:13.845Z,2.00
2022-09-06T17:41:49.106Z,2.13
2022-09-06T17:44:19.075Z,1.98
2022-09-06T17:47:03.110Z,2.22
2022-09-06T17:49:33.236Z,2.35
2022-09-06T17:51:59.787Z,2.13
2022-09-06T17:54:26.678Z,2.25
2022-09-06T17:56:53.329Z,2.08
2022-09-06T17:59:20.036Z,2.67
2022-09-06T18:01:47.195Z,2.25
2022-09-06T18:04:14.707Z,2.58
2022-09-06T18:06:43.149Z,2.08
2022-09-06T18:09:14.555Z,2.08
2022-09-06T18:14:15.952Z,2.22
2022-09-06T18:16:45.260Z,2.00
2022-09-06T18:19:12.353Z,2.47
2022-09-06T18:21:41.077Z,2.55
2022-09-06T18:24:09.379Z,2.50
2022-09-06T18:26:37.362Z,2.40
2022-09-06T18:29:07.039Z,2.80
2022-09-06T18:31:33.920Z,2.50
2022-09-06T18:34:00.546Z,2.45
2022-09-06T18:36:31.984Z,2.55
2022-09-06T18:39:02.858Z,2.42
2022-09-06T18:41:48.048Z,2.50
2022-09-06T18:44:14.868Z,2.70
2022-09-06T18:46:41.456Z,2.70
2022-09-06T18:49:08.455Z,2.97
2022-09-06T18:51:35.129Z,2.22
2022-09-06T18:54:02.249Z,2.65
2022-09-06T18:56:29.181Z,2.33
2022-09-06T18:58:58.258Z,2.55
2022-09-06T19:01:26.230Z,2.25
2022-09-06T19:03:52.884Z,2.28
2022-09-06T19:06:21.542Z,2.35
2022-09-06T19:08:49.144Z,2.88
2022-09-06T19:11:17.726Z,2.50
2022-09-06T19:13:45.761Z,2.72
2022-09-06T19:16:14.082Z,2.50
2022-09-06T19:18:41.218Z,2.70
2022-09-06T19:21:13.610Z,2.35
2022-09-06T19:23:45.451Z,2.20
2022-09-06T19:26:17.052Z,2.20
2022-09-06T19:28:52.240Z,2.20
2022-09-06T19:31:19.592Z,2.33
2022-09-06T19:33:48.354Z,2.00
2022-09-06T19:36:16.680Z,2.25
2022-09-06T19:41:31.471Z,2.50
2022-09-06T19:43:59.009Z,2.50
2022-09-06T19:46:26.754Z,2.65
2022-09-06T19:48:55.926Z,2.50
2022-09-06T19:51:23.428Z,2.72
2022-09-06T19:53:53.685Z,2.40
2022-09-06T19:56:31.780Z,2.60
2022-09-06T19:59:00.243Z,2.50
2022-09-06T20:01:29.565Z,2.22
2022-09-06T20:03:57.428Z,2.50
2022-09-06T20:06:24.283Z,2.35
2022-09-06T20:08:56.110Z,2.72
2022-09-06T20:11:25.758Z,2.20
2022-09-06T20:13:52.347Z,2.55
2022-09-06T20:16:20.753Z,2.45
2022-09-06T20:18:48.673Z,2.80
2022-09-06T20:21:15.300Z,2.72
2022-09-06T20:23:42.216Z,2.83
2022-09-06T20:26:10.972Z,2.60
2022-09-06T20:28:37.898Z,2.30
2022-09-06T20:31:07.181Z,2.50
2022-09-06T20:33:34.432Z,2.22
2022-09-06T20:36:06.830Z,2.47
2022-09-06T20:38:35.398Z,2.75
2022-09-06T20:41:06.400Z,2.47
2022-09-06T20:43:36.724Z,2.30
2022-09-06T20:46:15.580Z,2.35
2022-09-06T20:48:44.958Z,2.40
2022-09-06T20:51:15.641Z,2.60
2022-09-06T20:53:42.305Z,2.42
2022-09-06T20:56:17.712Z,2.45
2022-09-06T20:58:49.304Z,2.50
2022-09-06T21:01:22.399Z,2.38
2022-09-06T21:03:51.526Z,3.00
2022-09-06T21:06:18.761Z,2.70
2022-09-06T21:08:45.535Z,2.65
2022-09-06T21:11:14.780Z,2.83
2022-09-06T21:13:41.277Z,2.85
2022-09-06T21:16:07.927Z,2.72
2022-09-06T21:18:35.580Z,2.35
2022-09-06T21:21:04.217Z,2.55
2022-09-06T21:23:33.286Z,2.78
2022-09-06T21:26:05.778Z,2.60
2022-09-06T21:28:34.815Z,3.00
2022-09-06T21:31:03.275Z,2.70
2022-09-06T21:33:31.504Z,2.75
2022-09-06T21:36:08.106Z,2.45
2022-09-06T21:38:36.573Z,2.60
2022-09-06T21:41:04.518Z,2.70
2022-09-06T21:43:31.814Z,2.42
2022-09-06T21:46:07.129Z,2.97
2022-09-06T21:48:37.938Z,2.50
2022-09-06T21:51:07.364Z,2.63
2022-09-06T21:53:35.180Z,2.30
2022-09-06T21:56:03.367Z,2.70
2022-09-06T21:58:30.184Z,2.35
2022-09-06T22:01:01.432Z,2.47
2022-09-06T22:03:29.971Z,2.40
2022-09-06T22:05:56.891Z,2.60
2022-09-06T22:08:24.190Z,2.28
2022-09-06T22:10:50.818Z,2.20
2022-09-06T22:13:18.630Z,2.50
2022-09-06T22:15:45.864Z,2.60
2022-09-06T22:18:13.589Z,2.78
2022-09-06T22:20:40.425Z,2.55
2022-09-06T22:23:08.234Z,2.83
2022-09-06T22:25:34.880Z,2.42
2022-09-06T22:28:01.676Z,2.55
2022-09-06T22:30:28.399Z,2.58
2022-09-06T22:32:55.011Z,3.38
2022-09-06T22:35:21.899Z,2.70
2022-09-06T22:37:48.437Z,2.47
2022-09-06T22:40:14.994Z,2.50
2022-09-06T22:42:41.498Z,2.80
2022-09-06T22:45:08.508Z,2.72
2022-09-06T22:47:35.009Z,2.80
2022-09-06T22:50:01.720Z,2.70
2022-09-06T22:52:28.297Z,2.85
2022-09-06T22:54:54.867Z,2.67
2022-09-06T22:57:21.378Z,2.40
2022-09-06T22:59:48.570Z,2.50
2022-09-06T23:02:15.168Z,2.35
2022-09-06T23:04:41.770Z,2.40
2022-09-06T23:07:08.284Z,2.58
2022-09-06T23:09:34.776Z,2.67
2022-09-06T23:12:01.458Z,2.30
2022-09-06T23:14:28.549Z,2.50
2022-09-06T23:16:55.296Z,2.65
2022-09-06T23:19:21.853Z,2.70
2022-09-06T23:21:48.497Z,2.83
2022-09-06T23:24:15.034Z,2.80
2022-09-06T23:26:41.550Z,2.83
2022-09-06T23:29:08.230Z,2.72
2022-09-06T23:31:35.141Z,3.05
2022-09-06T23:34:02.136Z,2.83
2022-09-06T23:36:29.305Z,2.97
2022-09-06T23:38:56.865Z,2.80
2022-09-06T23:41:24.212Z,2.70
2022-09-06T23:43:51.052Z,3.00
2022-09-06T23:46:17.738Z,2.88
2022-09-06T23:48:44.435Z,2.83
2022-09-06T23:51:11.735Z,3.28
2022-09-06T23:53:38.617Z,3.00
2022-09-06T23:56:05.906Z,2.88
2022-09-06T23:58:33.268Z,2.85
